Time;durP1;ratioP1;P1;durP2;ratioP2;P2;SDS_P1;SDS_P2;PMS_P1;PMS_P2;Temp;Humidity;BMP_temperature;BMP_pressure;BME280_temperature;BME280_humidity;BME280_pressure;Samples;Min_cycle;Max_cycle;Signal;HPM_P1;HPM_P2
2021/07/29 00:01:42;;;;;;;24.47;22.87;;;18.00;85.70;;;;;;5037130;28;20567;-71
2021/07/29 00:04:11;;;;;;;23.80;22.50;;;18.00;86.10;;;;;;5042998;28;20482;-71
2021/07/29 00:06:37;;;;;;;24.60;23.20;;;17.90;86.30;;;;;;5046338;28;20570;-71
2021/07/29 00:09:04;;;;;;;24.10;22.77;;;17.90;86.10;;;;;;5045049;28;20486;-71
2021/07/29 00:11:32;;;;;;;23.90;22.40;;;17.90;86.30;;;;;;5046833;28;20475;-71
2021/07/29 00:14:01;;;;;;;24.70;23.23;;;17.80;86.50;;;;;;5048466;28;20538;-71
2021/07/29 00:16:30;;;;;;;24.30;23.00;;;17.80;86.50;;;;;;5046053;28;20644;-71
2021/07/29 00:19:04;;;;;;;24.90;23.50;;;17.80;86.50;;;;;;5045503;28;20459;-71
2021/07/29 00:21:33;;;;;;;24.17;22.77;;;17.80;86.50;;;;;;5047640;28;20449;-71
2021/07/29 00:24:00;;;;;;;23.70;22.40;;;17.70;86.80;;;;;;5047567;28;20561;-71
2021/07/29 00:26:27;;;;;;;23.40;22.10;;;17.70;86.80;;;;;;5040705;28;20560;-71
2021/07/29 00:28:54;;;;;;;24.40;22.70;;;17.60;87.00;;;;;;5048610;28;20544;-71
2021/07/29 00:31:24;;;;;;;24.77;23.27;;;17.60;87.10;;;;;;5046070;28;20465;-71
2021/07/29 00:33:51;;;;;;;23.20;22.00;;;17.60;87.10;;;;;;5047232;28;20558;-71
2021/07/29 00:36:21;;;;;;;24.10;22.80;;;17.60;87.00;;;;;;5035562;28;20511;-71
2021/07/29 00:38:50;;;;;;;23.40;22.10;;;17.60;87.10;;;;;;5048073;28;20465;-71
2021/07/29 00:41:17;;;;;;;24.20;22.90;;;17.50;87.30;;;;;;5044552;28;20848;-71
2021/07/29 00:43:45;;;;;;;24.13;22.83;;;17.60;87.20;;;;;;5047127;28;20477;-71
2021/07/29 00:46:14;;;;;;;23.17;21.97;;;17.60;87.10;;;;;;5046375;28;20489;-71
2021/07/29 00:48:42;;;;;;;24.30;22.73;;;17.60;87.10;;;;;;5046417;28;20538;-71
2021/07/29 00:51:09;;;;;;;24.10;22.60;;;17.50;87.10;;;;;;5044522;28;20455;-71
2021/07/29 00:53:37;;;;;;;24.33;22.77;;;17.50;87.10;;;;;;5047849;28;20454;-71
2021/07/29 00:56:06;;;;;;;24.73;23.17;;;17.50;87.00;;;;;;5042459;28;20582;-71
2021/07/29 00:58:33;;;;;;;24.30;22.60;;;17.50;87.10;;;;;;5034740;28;20459;-71
2021/07/29 01:01:00;;;;;;;25.17;23.77;;;17.50;87.00;;;;;;5044496;28;20480;-71
2021/07/29 01:03:26;;;;;;;24.53;23.20;;;17.50;87.00;;;;;;5048597;28;20586;-71
2021/07/29 01:05:53;;;;;;;25.27;23.87;;;17.40;87.10;;;;;;5044439;28;20480;-71
2021/07/29 01:08:20;;;;;;;24.93;23.53;;;17.40;87.20;;;;;;5043387;28;20455;-71
2021/07/29 01:10:47;;;;;;;24.87;23.33;;;17.30;87.20;;;;;;5046907;28;20481;-71
2021/07/29 01:13:15;;;;;;;25.43;23.93;;;17.40;87.10;;;;;;5047583;28;20483;-71
2021/07/29 01:15:42;;;;;;;25.37;23.93;;;17.30;87.50;;;;;;5047539;28;20479;-71
2021/07/29 01:18:09;;;;;;;24.63;23.13;;;17.30;87.50;;;;;;5047360;28;20453;-71
2021/07/29 01:20:37;;;;;;;24.90;23.30;;;17.30;87.40;;;;;;5046407;28;20453;-71
2021/07/29 01:23:04;;;;;;;24.27;22.97;;;17.30;87.40;;;;;;5046387;28;20509;-71
2021/07/29 01:25:31;;;;;;;24.30;22.90;;;17.30;86.90;;;;;;5046240;28;20459;-71
2021/07/29 01:27:58;;;;;;;24.37;22.97;;;17.30;87.00;;;;;;5040136;28;20458;-71
2021/07/29 01:30:25;;;;;;;24.67;22.80;;;17.30;87.10;;;;;;5047953;28;20509;-71
2021/07/29 01:32:52;;;;;;;24.13;22.70;;;17.30;87.00;;;;;;5047520;28;20467;-71
2021/07/29 01:35:19;;;;;;;24.57;23.17;;;17.20;87.00;;;;;;5050827;28;20897;-71
2021/07/29 01:37:47;;;;;;;24.63;23.23;;;17.30;87.00;;;;;;5049749;28;20460;-71
2021/07/29 01:40:15;;;;;;;24.33;22.90;;;17.20;86.90;;;;;;5049636;28;20455;-71
2021/07/29 01:42:42;;;;;;;24.03;22.73;;;17.20;87.00;;;;;;5047264;28;20531;-71
2021/07/29 01:45:10;;;;;;;25.00;23.37;;;17.20;87.10;;;;;;5050205;28;20844;-71
2021/07/29 01:47:37;;;;;;;23.93;22.47;;;17.20;87.10;;;;;;5039283;28;20479;-71
2021/07/29 01:50:04;;;;;;;23.97;22.57;;;17.10;87.20;;;;;;5044795;28;20451;-71
2021/07/29 01:52:31;;;;;;;23.80;22.50;;;17.10;87.00;;;;;;5040532;28;20482;-71
2021/07/29 01:54:59;;;;;;;23.77;22.47;;;17.10;87.00;;;;;;5051077;28;20459;-71
2021/07/29 01:57:26;;;;;;;23.77;22.47;;;17.10;87.20;;;;;;5048570;28;20475;-71
2021/07/29 01:59:53;;;;;;;24.10;22.70;;;17.00;87.40;;;;;;5050201;28;20459;-71
2021/07/29 02:02:20;;;;;;;24.30;23.00;;;17.00;87.50;;;;;;5047604;28;20456;-71
2021/07/29 02:04:47;;;;;;;23.33;22.03;;;17.00;87.60;;;;;;5050391;28;20836;-71
2021/07/29 02:07:14;;;;;;;23.67;22.33;;;17.00;87.50;;;;;;5044820;28;20485;-71
2021/07/29 02:09:41;;;;;;;22.90;21.70;;;17.00;87.70;;;;;;5047386;28;20474;-71
2021/07/29 02:12:09;;;;;;;23.83;22.00;;;17.00;87.40;;;;;;5048684;28;20471;-71
2021/07/29 02:14:36;;;;;;;23.20;21.87;;;17.00;87.60;;;;;;5050489;28;20534;-71
2021/07/29 02:17:03;;;;;;;23.40;22.10;;;16.90;87.80;;;;;;5049288;28;20475;-71
2021/07/29 02:19:32;;;;;;;22.40;21.00;;;17.00;87.80;;;;;;5049947;28;20825;-71
2021/07/29 02:21:59;;;;;;;23.10;21.70;;;17.00;87.60;;;;;;5043960;28;20467;-71
2021/07/29 02:24:25;;;;;;;23.07;21.80;;;17.00;87.70;;;;;;5047370;28;20487;-71
2021/07/29 02:26:52;;;;;;;22.73;21.43;;;17.00;87.60;;;;;;5047776;28;20513;-71
2021/07/29 02:29:21;;;;;;;23.50;22.10;;;16.90;87.70;;;;;;5047260;28;20983;-70
2021/07/29 02:31:49;;;;;;;23.60;22.40;;;16.90;88.10;;;;;;5047829;28;20498;-71
2021/07/29 02:34:16;;;;;;;24.03;22.27;;;16.90;87.90;;;;;;5046635;28;20448;-71
2021/07/29 02:36:43;;;;;;;24.10;22.60;;;16.90;87.90;;;;;;5047893;28;21039;-71
2021/07/29 02:39:09;;;;;;;24.30;22.70;;;16.90;88.20;;;;;;5047225;28;20824;-71
2021/07/29 02:41:36;;;;;;;22.90;21.70;;;16.80;88.40;;;;;;5048473;28;20468;-71
2021/07/29 02:44:04;;;;;;;23.47;22.17;;;16.80;88.60;;;;;;5048483;28;20475;-71
2021/07/29 02:46:32;;;;;;;23.37;22.07;;;16.70;88.60;;;;;;5035451;28;20480;-71
2021/07/29 02:48:59;;;;;;;23.47;22.07;;;16.70;88.90;;;;;;5045875;28;20451;-71
2021/07/29 02:51:26;;;;;;;23.50;22.10;;;16.70;88.80;;;;;;5047180;28;20467;-71
2021/07/29 02:53:53;;;;;;;28.00;26.40;;;16.70;88.70;;;;;;5049609;28;20562;-71
2021/07/29 02:56:20;;;;;;;26.20;24.70;;;16.70;88.70;;;;;;5047615;28;20942;-71
2021/07/29 02:58:47;;;;;;;27.80;26.07;;;16.80;88.70;;;;;;5043319;28;20812;-71
2021/07/29 03:01:15;;;;;;;22.97;21.67;;;16.80;88.60;;;;;;5046533;28;20491;-71
2021/07/29 03:03:44;;;;;;;25.73;24.13;;;16.70;88.80;;;;;;5042029;28;20483;-71
2021/07/29 03:06:11;;;;;;;23.87;22.57;;;16.70;88.80;;;;;;5035121;28;20501;-71
2021/07/29 03:08:38;;;;;;;22.70;21.40;;;16.60;89.10;;;;;;5041824;28;20822;-71
2021/07/29 03:11:05;;;;;;;24.53;23.03;;;16.60;89.20;;;;;;5036813;28;20557;-70
2021/07/29 03:13:32;;;;;;;23.50;22.10;;;16.50;89.40;;;;;;5048761;28;20825;-71
2021/07/29 03:15:59;;;;;;;22.53;21.33;;;16.50;89.60;;;;;;5045992;28;20562;-71
2021/07/29 03:18:26;;;;;;;28.40;26.87;;;16.50;89.60;;;;;;5046212;28;20456;-71
2021/07/29 03:20:55;;;;;;;24.30;22.80;;;16.50;89.50;;;;;;5046201;28;20550;-71
2021/07/29 03:23:22;;;;;;;26.60;25.17;;;16.50;89.50;;;;;;5048180;28;22888;-71
2021/07/29 03:25:50;;;;;;;27.50;25.83;;;16.40;89.70;;;;;;5045099;28;20652;-71
2021/07/29 03:28:17;;;;;;;24.70;23.20;;;16.40;90.00;;;;;;5048834;28;20455;-71
2021/07/29 03:30:44;;;;;;;28.50;26.90;;;16.30;90.20;;;;;;5044808;28;20466;-71
2021/07/29 03:33:11;;;;;;;25.03;23.53;;;16.30;90.30;;;;;;5048404;28;20455;-71
2021/07/29 03:35:38;;;;;;;24.47;23.10;;;16.40;90.20;;;;;;5042411;28;20448;-71
2021/07/29 03:38:08;;;;;;;23.87;22.43;;;16.40;90.10;;;;;;5047655;28;20447;-71
2021/07/29 03:40:35;;;;;;;23.80;22.50;;;16.40;90.00;;;;;;5040678;28;20490;-71
2021/07/29 03:43:03;;;;;;;26.40;24.73;;;16.40;89.80;;;;;;5046948;28;20455;-71
2021/07/29 03:45:30;;;;;;;28.33;26.70;;;16.40;89.80;;;;;;5047165;28;20486;-71
2021/07/29 03:47:57;;;;;;;24.27;22.70;;;16.40;89.90;;;;;;5045549;28;20459;-71
2021/07/29 03:50:24;;;;;;;24.23;22.90;;;16.40;89.80;;;;;;5045200;28;20545;-71
2021/07/29 03:52:50;;;;;;;24.40;22.93;;;16.30;89.90;;;;;;5047425;28;20897;-71
2021/07/29 03:55:19;;;;;;;23.50;22.10;;;16.40;90.00;;;;;;5045916;28;20531;-71
2021/07/29 03:57:46;;;;;;;25.40;23.80;;;16.30;90.00;;;;;;5046695;28;20821;-71
2021/07/29 04:00:14;;;;;;;25.27;23.87;;;16.30;90.00;;;;;;5047630;28;20960;-71
2021/07/29 04:02:41;;;;;;;24.50;23.00;;;16.30;90.10;;;;;;5040714;28;20457;-71
2021/07/29 04:05:09;;;;;;;24.40;22.93;;;16.30;90.20;;;;;;5040947;28;20483;-71
2021/07/29 04:07:36;;;;;;;23.80;22.40;;;16.30;90.10;;;;;;5045375;28;20475;-71
2021/07/29 04:10:05;;;;;;;23.50;22.17;;;16.30;90.10;;;;;;5038472;28;20509;-71
2021/07/29 04:12:34;;;;;;;26.63;25.00;;;16.40;89.90;;;;;;5047346;28;20463;-71
2021/07/29 04:15:01;;;;;;;24.47;22.97;;;16.40;89.80;;;;;;5046633;28;20460;-71
2021/07/29 04:17:28;;;;;;;27.73;26.10;;;16.40;89.80;;;;;;5045086;28;20479;-71
2021/07/29 04:19:57;;;;;;;24.57;23.17;;;16.50;89.60;;;;;;5047910;28;20462;-71
2021/07/29 04:22:24;;;;;;;26.20;24.57;;;16.50;89.50;;;;;;5047096;28;21051;-71
2021/07/29 04:24:54;;;;;;;24.83;23.23;;;16.50;89.40;;;;;;5048377;28;20517;-71
2021/07/29 04:27:21;;;;;;;27.23;25.43;;;16.60;89.20;;;;;;5044629;28;20532;-71
2021/07/29 04:29:49;;;;;;;25.87;24.33;;;16.60;89.30;;;;;;5046087;28;20454;-71
2021/07/29 04:32:16;;;;;;;25.93;24.53;;;16.60;89.20;;;;;;5045344;28;20463;-71
2021/07/29 04:34:43;;;;;;;25.77;24.17;;;16.60;89.00;;;;;;5047885;28;20453;-71
2021/07/29 04:37:10;;;;;;;27.30;25.30;;;16.70;89.00;;;;;;5046440;28;20506;-71
2021/07/29 04:39:41;;;;;;;26.53;24.93;;;16.70;88.70;;;;;;5043827;28;20872;-71
2021/07/29 04:42:08;;;;;;;24.90;23.50;;;16.70;88.80;;;;;;5044762;28;20563;-71
2021/07/29 04:44:35;;;;;;;28.97;27.37;;;16.80;88.50;;;;;;5044116;28;20480;-71
2021/07/29 04:47:04;;;;;;;25.73;24.10;;;16.80;88.30;;;;;;5042438;28;20486;-71
2021/07/29 04:49:30;;;;;;;27.73;25.97;;;16.90;88.30;;;;;;5046688;28;20546;-71
2021/07/29 04:51:57;;;;;;;24.50;23.00;;;16.80;88.20;;;;;;5045465;28;20473;-71
2021/07/29 04:54:24;;;;;;;24.97;23.57;;;16.80;88.30;;;;;;5047505;28;20457;-71
2021/07/29 04:56:51;;;;;;;25.17;23.70;;;16.90;88.00;;;;;;5044882;28;20479;-71
2021/07/29 04:59:19;;;;;;;26.60;25.00;;;17.00;87.90;;;;;;5039277;28;20451;-72
2021/07/29 05:01:46;;;;;;;24.43;22.90;;;17.00;87.80;;;;;;5036505;28;20555;-73
2021/07/29 05:04:14;;;;;;;24.70;23.20;;;17.00;87.80;;;;;;5043217;28;20481;-73
2021/07/29 05:06:41;;;;;;;25.33;23.60;;;17.10;87.70;;;;;;5045803;28;20506;-72
2021/07/29 05:09:09;;;;;;;27.13;25.40;;;17.10;87.60;;;;;;5043828;28;21008;-73
2021/07/29 05:11:36;;;;;;;24.73;23.23;;;17.20;87.40;;;;;;5049606;28;20489;-73
2021/07/29 05:14:04;;;;;;;27.40;25.77;;;17.20;87.50;;;;;;5054638;28;20544;-74
2021/07/29 05:16:31;;;;;;;26.60;25.00;;;17.30;87.60;;;;;;5046104;28;21235;-73
2021/07/29 05:18:58;;;;;;;29.30;27.73;;;17.40;87.00;;;;;;5049659;28;20533;-73
2021/07/29 05:21:26;;;;;;;26.47;24.90;;;17.50;86.80;;;;;;5049004;28;20469;-73
2021/07/29 05:23:53;;;;;;;25.07;23.70;;;17.70;86.20;;;;;;5050938;28;20469;-74
2021/07/29 05:26:19;;;;;;;27.33;25.53;;;17.80;85.50;;;;;;5047456;28;20479;-75
2021/07/29 05:28:51;;;;;;;25.30;23.80;;;18.00;85.00;;;;;;5047953;28;20552;-74
2021/07/29 05:31:18;;;;;;;28.30;26.70;;;18.20;84.60;;;;;;5050679;28;20897;-75
2021/07/29 05:33:45;;;;;;;25.93;24.10;;;18.20;83.90;;;;;;5050780;28;20927;-75
2021/07/29 05:36:12;;;;;;;26.37;24.77;;;18.30;83.90;;;;;;5046589;28;20549;-73
2021/07/29 05:38:40;;;;;;;25.50;24.00;;;18.50;83.00;;;;;;5043287;28;20474;-74
2021/07/29 05:41:08;;;;;;;27.30;25.50;;;18.60;82.80;;;;;;5047628;28;20545;-72
2021/07/29 05:43:36;;;;;;;29.20;27.60;;;18.60;82.50;;;;;;5050048;28;20821;-72
2021/07/29 05:46:07;;;;;;;29.67;27.87;;;18.70;82.30;;;;;;5050102;28;20482;-72
2021/07/29 05:48:34;;;;;;;29.47;27.70;;;18.80;82.20;;;;;;5051102;28;20458;-72
2021/07/29 05:51:02;;;;;;;25.43;23.83;;;18.90;82.00;;;;;;5048200;28;20451;-73
2021/07/29 05:53:28;;;;;;;26.73;25.13;;;19.10;81.60;;;;;;5046838;28;20509;-72
2021/07/29 05:55:57;;;;;;;27.60;25.67;;;19.20;81.30;;;;;;5045058;28;20479;-72
2021/07/29 05:58:24;;;;;;;28.47;26.57;;;19.40;81.00;;;;;;5040305;28;20459;-72
2021/07/29 06:00:51;;;;;;;30.40;28.60;;;19.60;80.10;;;;;;5040404;28;20454;-71
2021/07/29 06:03:18;;;;;;;28.77;27.07;;;19.80;79.30;;;;;;5047424;28;20455;-71
2021/07/29 06:05:45;;;;;;;30.67;28.70;;;19.90;79.00;;;;;;5038342;28;20576;-71
2021/07/29 06:08:12;;;;;;;28.47;26.90;;;20.10;78.40;;;;;;5043298;28;20452;-71
2021/07/29 06:10:40;;;;;;;26.70;25.10;;;20.30;77.90;;;;;;5047379;28;20517;-71
2021/07/29 06:13:08;;;;;;;31.13;29.20;;;20.50;76.90;;;;;;5050578;28;20545;-70
2021/07/29 06:15:35;;;;;;;30.57;28.87;;;20.60;76.50;;;;;;5050764;28;21135;-72
2021/07/29 06:18:02;;;;;;;29.97;28.37;;;20.70;76.40;;;;;;5041090;28;20542;-71
2021/07/29 06:20:31;;;;;;;27.10;25.57;;;20.90;75.70;;;;;;5047881;28;20455;-72
2021/07/29 06:22:58;;;;;;;27.03;25.50;;;21.10;74.90;;;;;;5045734;28;20463;-71
2021/07/29 06:25:25;;;;;;;29.20;27.50;;;21.20;74.60;;;;;;5048499;28;20856;-72
2021/07/29 06:28:04;;;;;;;27.40;25.80;;;21.30;74.00;;;;;;5045869;28;20456;-72
2021/07/29 06:30:33;;;;;;;27.10;25.70;;;21.40;73.60;;;;;;5050413;28;20467;-72
2021/07/29 06:33:00;;;;;;;27.57;25.80;;;21.60;73.30;;;;;;5047851;28;20877;-72
2021/07/29 06:35:28;;;;;;;29.77;27.77;;;21.80;73.00;;;;;;5045235;28;20954;-72
2021/07/29 06:37:57;;;;;;;28.10;26.40;;;21.80;72.70;;;;;;5046807;28;20462;-72
2021/07/29 06:40:24;;;;;;;29.73;27.93;;;22.00;72.00;;;;;;5046933;28;20938;-72
2021/07/29 06:42:51;;;;;;;31.90;30.00;;;22.10;71.70;;;;;;5047157;28;20458;-73
2021/07/29 06:45:19;;;;;;;29.93;28.10;;;22.20;70.40;;;;;;5042530;28;20495;-78
2021/07/29 06:47:47;;;;;;;31.10;29.40;;;22.20;70.60;;;;;;5046429;28;20471;-75
2021/07/29 06:50:16;;;;;;;28.77;27.07;;;22.30;70.10;;;;;;5044527;28;20556;-74
2021/07/29 06:52:43;;;;;;;29.20;27.57;;;22.30;69.20;;;;;;5045225;28;20456;-78
2021/07/29 06:55:11;;;;;;;30.63;28.90;;;22.30;69.00;;;;;;5048175;28;20805;-73
2021/07/29 06:57:38;;;;;;;29.20;27.50;;;22.20;69.40;;;;;;5046123;28;20506;-71
2021/07/29 07:00:06;;;;;;;28.00;26.50;;;22.20;69.30;;;;;;5049343;28;20458;-73
2021/07/29 07:02:32;;;;;;;31.70;29.90;;;22.30;69.40;;;;;;5046516;28;20533;-73
2021/07/29 07:05:01;;;;;;;30.63;28.73;;;22.30;68.80;;;;;;5050644;28;20474;-71
2021/07/29 07:07:27;;;;;;;29.10;27.30;;;22.20;69.30;;;;;;5048909;28;20518;-73
2021/07/29 07:09:54;;;;;;;32.77;30.40;;;22.30;68.50;;;;;;5048106;28;20554;-73
2021/07/29 07:12:21;;;;;;;31.03;28.13;;;22.40;68.50;;;;;;5045307;28;20852;-74
2021/07/29 07:14:48;;;;;;;28.73;27.13;;;22.50;68.10;;;;;;5042934;28;20462;-74
2021/07/29 07:17:15;;;;;;;30.70;28.90;;;22.50;68.00;;;;;;5043864;28;20477;-72
2021/07/29 07:19:43;;;;;;;30.33;28.70;;;22.50;68.20;;;;;;5045078;28;20546;-72
2021/07/29 07:22:11;;;;;;;29.50;27.80;;;22.60;67.90;;;;;;5042746;28;20466;-72
2021/07/29 07:24:38;;;;;;;30.23;28.37;;;22.60;67.70;;;;;;5045076;28;20444;-73
2021/07/29 07:27:06;;;;;;;28.87;27.20;;;22.60;67.60;;;;;;5047782;28;21023;-73
2021/07/29 07:29:34;;;;;;;28.37;26.77;;;22.70;67.80;;;;;;5042603;28;20455;-73
2021/07/29 07:32:01;;;;;;;29.57;27.97;;;22.80;67.60;;;;;;5042459;28;20479;-73
2021/07/29 07:34:28;;;;;;;29.02;27.23;;;22.90;67.30;;;;;;5044872;28;20509;-72
2021/07/29 07:36:56;;;;;;;30.23;28.43;;;23.00;66.50;;;;;;5047328;28;20224;-71
2021/07/29 07:39:25;;;;;;;31.17;29.20;;;23.00;66.50;;;;;;5039606;28;20463;-72
2021/07/29 07:41:52;;;;;;;29.80;27.87;;;23.10;65.00;;;;;;5041272;28;20462;-72
2021/07/29 07:44:19;;;;;;;30.33;28.30;;;23.10;65.50;;;;;;5044807;28;20455;-71
2021/07/29 07:46:46;;;;;;;32.33;30.40;;;23.20;65.00;;;;;;5043646;28;20492;-73
2021/07/29 07:49:13;;;;;;;33.53;31.60;;;23.40;63.90;;;;;;5045837;28;20558;-73
2021/07/29 07:51:42;;;;;;;30.00;28.30;;;23.50;64.40;;;;;;5044525;28;20987;-73
2021/07/29 07:54:09;;;;;;;30.17;28.27;;;23.80;63.00;;;;;;5044980;28;20968;-73
2021/07/29 07:56:42;;;;;;;31.00;29.20;;;23.80;62.50;;;;;;5044710;28;20477;-72
2021/07/29 07:59:09;;;;;;;30.37;28.67;;;24.00;62.20;;;;;;5044662;28;20514;-72
2021/07/29 08:01:38;;;;;;;29.57;27.87;;;23.80;61.50;;;;;;5038704;28;20471;-71
2021/07/29 08:04:05;;;;;;;30.05;28.15;;;23.40;62.40;;;;;;5042653;28;20544;-72
2021/07/29 08:06:32;;;;;;;31.37;29.47;;;23.60;62.20;;;;;;5040296;28;20217;-72
2021/07/29 08:09:00;;;;;;;30.40;28.77;;;23.70;62.70;;;;;;5042668;28;20467;-72
2021/07/29 08:11:27;;;;;;;30.37;28.67;;;23.80;62.40;;;;;;5042494;28;20458;-74
2021/07/29 08:13:55;;;;;;;30.03;28.33;;;24.00;62.20;;;;;;5044341;28;20455;-73
2021/07/29 08:16:22;;;;;;;32.50;30.60;;;24.10;61.70;;;;;;5045097;28;20490;-72
2021/07/29 08:18:49;;;;;;;30.20;28.60;;;24.30;61.60;;;;;;5038737;28;20833;-72
2021/07/29 08:21:17;;;;;;;32.10;30.30;;;24.40;61.50;;;;;;5044348;28;20869;-72
2021/07/29 08:23:44;;;;;;;31.50;29.60;;;24.40;61.50;;;;;;5047331;28;20455;-73
2021/07/29 08:26:11;;;;;;;31.20;29.37;;;24.50;60.90;;;;;;5044491;28;20482;-72
2021/07/29 08:28:40;;;;;;;31.13;29.33;;;24.60;60.60;;;;;;5042191;28;20461;-72
2021/07/29 08:31:09;;;;;;;30.83;28.90;;;24.70;59.90;;;;;;5037764;28;20466;-72
2021/07/29 08:33:36;;;;;;;32.00;30.00;;;24.70;59.00;;;;;;5043198;28;20551;-72
2021/07/29 08:36:05;;;;;;;31.57;29.77;;;24.60;59.60;;;;;;5043143;28;20465;-72
2021/07/29 08:38:31;;;;;;;30.37;28.30;;;24.60;59.80;;;;;;5045996;28;21137;-72
2021/07/29 08:40:58;;;;;;;33.40;31.50;;;24.70;59.70;;;;;;5044266;28;20473;-73
2021/07/29 08:43:27;;;;;;;31.07;29.27;;;24.90;59.30;;;;;;5044087;28;20801;-72
2021/07/29 08:45:55;;;;;;;33.00;31.00;;;25.00;58.70;;;;;;5041956;28;20579;-73
2021/07/29 08:48:26;;;;;;;31.43;29.70;;;25.10;58.30;;;;;;5046922;28;20461;-72
2021/07/29 08:50:53;;;;;;;30.43;28.70;;;25.10;57.50;;;;;;5046904;28;20470;-72
2021/07/29 08:53:20;;;;;;;30.80;29.10;;;25.30;57.70;;;;;;5041249;28;20564;-73
2021/07/29 08:55:51;;;;;;;32.37;30.47;;;25.20;55.90;;;;;;5041625;28;20485;-73
2021/07/29 08:58:18;;;;;;;31.47;29.77;;;25.10;56.80;;;;;;5044482;28;20452;-73
2021/07/29 09:01:06;;;;;;;31.37;29.57;;;25.10;56.00;;;;;;5044248;28;20957;-73
2021/07/29 09:03:35;;;;;;;36.33;34.53;;;25.10;56.60;;;;;;5035378;28;20958;-73
2021/07/29 09:06:05;;;;;;;31.50;29.80;;;25.10;56.30;;;;;;5042459;28;20475;-73
2021/07/29 09:08:46;;;;;;;30.60;28.70;;;24.90;56.60;;;;;;5039515;28;21037;-73
2021/07/29 09:11:30;;;;;;;32.63;30.73;;;25.00;57.40;;;;;;5037640;28;20465;-72
2021/07/29 09:14:06;;;;;;;31.83;30.03;;;25.20;56.50;;;;;;5046407;28;20805;-73
2021/07/29 09:16:37;;;;;;;33.07;31.10;;;25.50;56.20;;;;;;5039213;28;21108;-73
2021/07/29 09:19:06;;;;;;;30.30;28.50;;;25.60;54.70;;;;;;5047282;28;20458;-73
2021/07/29 09:21:33;;;;;;;34.40;32.20;;;25.50;53.00;;;;;;5044079;28;20466;-73
2021/07/29 09:24:05;;;;;;;31.70;29.90;;;24.90;55.80;;;;;;5044256;28;20497;-73
2021/07/29 09:26:55;;;;;;;31.63;29.73;;;24.80;56.30;;;;;;5041654;28;20475;-73
2021/07/29 09:29:23;;;;;;;31.30;29.40;;;24.50;56.50;;;;;;5041756;28;20462;-73
2021/07/29 09:32:03;;;;;;;30.30;28.60;;;24.40;56.40;;;;;;5039461;28;20529;-73
2021/07/29 09:34:42;;;;;;;32.27;30.47;;;24.40;56.80;;;;;;5042387;28;20457;-73
2021/07/29 09:37:11;;;;;;;31.57;29.77;;;24.50;56.60;;;;;;5042733;28;20467;-73
2021/07/29 09:39:38;;;;;;;34.03;31.67;;;24.60;56.00;;;;;;5040096;28;20817;-73
2021/07/29 09:42:19;;;;;;;31.20;29.40;;;24.50;55.90;;;;;;5042243;28;20545;-73
2021/07/29 09:44:48;;;;;;;33.17;31.17;;;24.00;56.80;;;;;;5043710;28;20495;-71
2021/07/29 09:47:16;;;;;;;30.37;28.37;;;23.80;57.80;;;;;;5043375;28;20486;-72
2021/07/29 09:49:45;;;;;;;31.53;29.83;;;23.40;58.50;;;;;;5038754;28;20459;-72
2021/07/29 09:52:12;;;;;;;31.60;29.80;;;23.60;58.10;;;;;;5036513;28;20577;-73
2021/07/29 09:54:41;;;;;;;29.80;28.20;;;23.70;58.90;;;;;;5047610;28;20457;-72
2021/07/29 09:57:10;;;;;;;33.67;31.57;;;23.80;57.80;;;;;;5046579;28;20479;-72
2021/07/29 09:59:37;;;;;;;34.67;32.73;;;23.90;57.20;;;;;;5046674;28;20465;-72
2021/07/29 10:02:05;;;;;;;36.90;34.80;;;23.70;57.00;;;;;;5047239;28;20469;-72
2021/07/29 10:04:39;;;;;;;32.33;30.40;;;23.90;57.10;;;;;;5043769;28;20451;-72
2021/07/29 10:07:11;;;;;;;34.97;32.77;;;24.00;56.90;;;;;;5048011;28;20494;-72
2021/07/29 10:09:45;;;;;;;33.40;31.50;;;24.20;56.80;;;;;;5047937;28;20455;-72
2021/07/29 10:12:18;;;;;;;31.07;29.17;;;24.00;56.40;;;;;;5045713;28;20592;-73
2021/07/29 10:14:53;;;;;;;34.40;32.50;;;24.10;57.40;;;;;;5045795;28;20459;-72
2021/07/29 10:17:56;;;;;;;32.90;30.90;;;24.10;55.80;;;;;;5045580;28;20474;-72
2021/07/29 10:20:23;;;;;;;32.33;30.33;;;24.40;55.70;;;;;;5049304;28;20462;-72
2021/07/29 10:23:38;;;;;;;31.63;29.63;;;24.60;55.50;;;;;;5045265;28;20498;-72
2021/07/29 10:26:07;;;;;;;31.83;29.90;;;24.90;54.70;;;;;;5046114;28;20483;-72
2021/07/29 10:28:38;;;;;;;32.60;30.80;;;24.90;54.60;;;;;;5044769;28;20557;-73
2021/07/29 10:31:05;;;;;;;33.77;31.77;;;24.90;53.80;;;;;;5044180;28;20975;-73
2021/07/29 10:33:32;;;;;;;33.80;31.67;;;25.00;54.00;;;;;;5048524;28;20541;-72
2021/07/29 10:36:01;;;;;;;34.13;31.90;;;25.00;54.00;;;;;;5047796;28;20475;-73
2021/07/29 10:38:54;;;;;;;32.00;30.20;;;25.10;53.80;;;;;;5047284;28;20980;-72
2021/07/29 10:41:52;;;;;;;31.90;30.10;;;25.40;53.50;;;;;;5043278;28;20464;-72
2021/07/29 10:44:49;;;;;;;31.77;29.97;;;25.60;53.10;;;;;;5037384;28;20452;-73
2021/07/29 10:47:38;;;;;;;36.80;34.60;;;25.70;52.40;;;;;;4985269;28;20627;-72
2021/07/29 10:50:12;;;;;;;35.67;33.67;;;25.90;52.00;;;;;;5031777;28;20562;-73
2021/07/29 10:52:39;;;;;;;35.80;33.70;;;25.80;51.60;;;;;;5041981;28;20570;-72
2021/07/29 10:55:10;;;;;;;32.77;30.73;;;25.80;51.80;;;;;;5047753;28;21015;-72
2021/07/29 10:57:37;;;;;;;34.57;32.57;;;25.90;51.70;;;;;;5045124;28;20471;-72
2021/07/29 11:00:05;;;;;;;34.40;32.40;;;25.90;52.00;;;;;;5049617;28;20455;-73
2021/07/29 11:02:42;;;;;;;35.93;33.93;;;25.50;51.30;;;;;;5046323;28;20941;-72
2021/07/29 11:05:10;;;;;;;34.00;32.00;;;25.20;52.40;;;;;;5044576;28;20968;-72
2021/07/29 11:07:43;;;;;;;35.80;33.70;;;25.20;52.80;;;;;;5045872;28;20475;-73
2021/07/29 11:10:16;;;;;;;32.27;30.20;;;25.10;52.60;;;;;;5046217;28;20633;-72
2021/07/29 11:12:46;;;;;;;34.40;32.50;;;25.00;53.60;;;;;;5044248;28;20556;-72
2021/07/29 11:15:13;;;;;;;33.60;31.50;;;25.00;52.30;;;;;;5037868;28;20447;-72
2021/07/29 11:17:40;;;;;;;33.40;31.40;;;25.00;52.20;;;;;;5048860;28;20463;-72
2021/07/29 11:20:08;;;;;;;31.83;29.83;;;25.20;52.00;;;;;;5046491;28;20459;-72
2021/07/29 11:22:46;;;;;;;31.77;29.97;;;25.10;52.10;;;;;;5045989;28;20458;-72
2021/07/29 11:25:18;;;;;;;32.87;31.07;;;24.90;52.30;;;;;;5048380;28;20463;-72
2021/07/29 11:27:45;;;;;;;30.47;28.77;;;24.80;52.90;;;;;;5042867;28;20485;-72
2021/07/29 11:30:13;;;;;;;32.83;31.03;;;24.90;53.10;;;;;;5037198;28;20474;-71
2021/07/29 11:32:41;;;;;;;32.70;30.80;;;25.00;53.90;;;;;;5046093;28;20529;-71
2021/07/29 11:35:10;;;;;;;35.40;33.40;;;25.40;52.20;;;;;;5047537;28;20469;-72
2021/07/29 11:37:39;;;;;;;31.37;29.53;;;25.70;52.50;;;;;;5040541;28;20475;-72
2021/07/29 11:40:08;;;;;;;32.00;30.20;;;25.70;50.30;;;;;;5047077;28;20478;-72
2021/07/29 11:42:39;;;;;;;32.90;31.00;;;25.30;51.70;;;;;;5041871;28;20461;-72
2021/07/29 11:45:21;;;;;;;33.27;31.27;;;25.10;52.10;;;;;;5042227;28;20464;-74
2021/07/29 11:47:48;;;;;;;34.30;32.00;;;24.90;52.70;;;;;;5039089;28;20487;-74
2021/07/29 11:50:15;;;;;;;31.50;29.70;;;25.10;52.40;;;;;;5042227;28;20461;-72
2021/07/29 11:52:52;;;;;;;31.50;29.70;;;25.30;52.30;;;;;;5042954;28;20961;-72
2021/07/29 11:55:20;;;;;;;32.17;30.27;;;25.40;51.50;;;;;;5040888;28;20458;-73
2021/07/29 11:57:49;;;;;;;32.60;30.70;;;25.60;52.40;;;;;;5042751;28;20546;-74
2021/07/29 12:00:28;;;;;;;32.27;30.37;;;25.60;51.80;;;;;;5047341;28;20461;-74
2021/07/29 12:02:55;;;;;;;32.40;30.57;;;25.50;52.40;;;;;;5044762;28;20459;-75
2021/07/29 12:05:24;;;;;;;33.73;31.60;;;25.70;52.00;;;;;;5034861;28;20456;-74
2021/07/29 12:07:53;;;;;;;32.90;31.00;;;25.50;52.10;;;;;;5043604;28;20489;-74
2021/07/29 12:10:23;;;;;;;32.20;30.40;;;25.00;53.60;;;;;;5048002;28;20473;-73
2021/07/29 12:12:51;;;;;;;32.03;30.23;;;24.90;53.60;;;;;;5042894;28;20455;-75
2021/07/29 12:15:19;;;;;;;34.20;32.20;;;25.00;53.50;;;;;;5039288;28;20562;-75
2021/07/29 12:17:46;;;;;;;32.10;30.20;;;25.00;53.40;;;;;;5042611;28;20843;-75
2021/07/29 12:20:14;;;;;;;32.60;30.60;;;24.80;52.90;;;;;;5048434;28;20477;-75
2021/07/29 12:22:43;;;;;;;33.40;31.53;;;24.80;53.80;;;;;;5043263;28;20451;-75
2021/07/29 12:25:28;;;;;;;31.80;30.00;;;25.00;53.40;;;;;;5044159;28;20494;-76
2021/07/29 12:27:58;;;;;;;32.20;30.40;;;25.20;52.60;;;;;;5042303;28;20482;-76
2021/07/29 12:30:29;;;;;;;31.60;29.70;;;25.30;52.50;;;;;;5041510;28;21252;-74
2021/07/29 12:33:22;;;;;;;32.80;30.80;;;25.70;52.80;;;;;;5040132;28;20458;-76
2021/07/29 12:35:58;;;;;;;34.00;32.10;;;26.20;52.30;;;;;;5033106;28;20534;-75
2021/07/29 12:38:29;;;;;;;33.13;31.23;;;26.50;51.10;;;;;;5044873;28;20493;-75